createdAt,value
2022-08-14T00:00:36.844Z,15.51
2022-08-14T00:03:40.723Z,15.61
2022-08-14T00:06:42.951Z,15.71
2022-08-14T00:10:01.390Z,15.72
2022-08-14T00:13:10.366Z,15.63
2022-08-14T00:16:41.341Z,15.52
2022-08-14T00:19:36.656Z,15.40
2022-08-14T00:22:57.235Z,15.24
2022-08-14T00:26:06.792Z,15.21
2022-08-14T00:29:14.530Z,14.99
2022-08-14T00:32:52.652Z,14.91
2022-08-14T00:36:33.911Z,14.87
2022-08-14T00:38:59.265Z,14.81
2022-08-14T00:42:02.241Z,14.77
2022-08-14T00:45:06.153Z,14.74
2022-08-14T00:48:07.667Z,14.76
2022-08-14T00:51:09.867Z,14.92
2022-08-14T00:54:21.037Z,14.97
2022-08-14T00:57:28.145Z,15.09
2022-08-14T01:00:37.599Z,15.16
2022-08-14T01:03:44.851Z,15.13
2022-08-14T01:06:46.836Z,15.15
2022-08-14T01:09:58.626Z,15.03
2022-08-14T01:13:00.215Z,14.92
2022-08-14T01:16:05.645Z,14.80
2022-08-14T01:19:27.584Z,14.81
2022-08-14T01:22:29.618Z,14.90
2022-08-14T01:25:31.130Z,14.95
2022-08-14T01:28:54.183Z,14.93
2022-08-14T01:32:00.345Z,14.81
2022-08-14T01:35:17.636Z,14.64
2022-08-14T01:38:24.116Z,14.69
2022-08-14T01:41:30.175Z,14.59
2022-08-14T01:44:34.544Z,14.62
2022-08-14T01:47:37.144Z,14.67
2022-08-14T01:50:39.308Z,14.52
2022-08-14T01:53:47.883Z,14.50
2022-08-14T01:56:56.863Z,14.37
2022-08-14T01:59:58.773Z,14.33
2022-08-14T02:03:00.444Z,14.17
2022-08-14T02:06:04.153Z,14.26
2022-08-14T02:09:24.227Z,14.34
2022-08-14T02:12:29.234Z,14.37
2022-08-14T02:15:31.045Z,14.38
2022-08-14T02:18:33.428Z,14.31
2022-08-14T02:21:43.346Z,14.15
2022-08-14T02:24:47.867Z,14.12
2022-08-14T02:28:24.521Z,14.13
2022-08-14T02:31:14.886Z,13.92
2022-08-14T02:34:22.285Z,13.88
2022-08-14T02:37:46.438Z,13.91
2022-08-14T02:40:49.222Z,13.78
2022-08-14T02:43:51.256Z,13.72
2022-08-14T02:46:53.886Z,13.68
2022-08-14T02:50:03.460Z,13.80
2022-08-14T02:53:05.825Z,13.91
2022-08-14T02:56:30.770Z,13.89
2022-08-14T02:59:33.655Z,13.69
2022-08-14T03:02:56.363Z,13.56
2022-08-14T03:05:57.783Z,13.55
2022-08-14T03:08:59.924Z,13.47
2022-08-14T03:12:02.565Z,13.48
2022-08-14T03:15:16.275Z,13.48
2022-08-14T03:18:31.907Z,13.50
2022-08-14T03:21:34.473Z,13.39
2022-08-14T03:24:36.681Z,13.34
2022-08-14T03:27:48.431Z,13.50
2022-08-14T03:31:00.481Z,13.58
2022-08-14T03:34:03.214Z,13.49
2022-08-14T03:37:39.185Z,13.49
2022-08-14T03:40:26.691Z,13.34
2022-08-14T03:43:32.611Z,13.30
2022-08-14T03:46:52.405Z,13.22
2022-08-14T03:49:56.422Z,13.29
2022-08-14T03:53:01.536Z,13.32
2022-08-14T03:56:04.709Z,13.22
2022-08-14T03:59:17.851Z,13.27
2022-08-14T04:02:37.227Z,13.15
2022-08-14T04:05:43.387Z,13.08
2022-08-14T04:08:52.333Z,13.18
2022-08-14T04:11:54.396Z,13.11
2022-08-14T04:14:58.438Z,13.05
2022-08-14T04:18:05.715Z,13.01
2022-08-14T04:21:10.307Z,13.08
2022-08-14T04:24:14.369Z,13.03
2022-08-14T04:27:19.186Z,13.02
2022-08-14T04:30:24.185Z,12.96
2022-08-14T04:33:33.109Z,12.90
2022-08-14T04:36:55.019Z,12.81
2022-08-14T04:40:15.360Z,12.86
2022-08-14T04:43:38.487Z,12.86
2022-08-14T04:46:56.789Z,12.94
2022-08-14T04:49:59.261Z,13.06
2022-08-14T04:53:04.888Z,13.06
2022-08-14T04:56:30.065Z,13.11
2022-08-14T04:59:28.315Z,13.12
2022-08-14T05:02:31.541Z,13.16
2022-08-14T05:05:36.198Z,13.25
2022-08-14T05:08:56.951Z,13.32
2022-08-14T05:13:12.906Z,13.30
2022-08-14T05:15:22.562Z,13.38
2022-08-14T05:18:37.157Z,13.40
2022-08-14T05:21:57.783Z,13.43
2022-08-14T05:25:04.120Z,13.46
2022-08-14T05:28:21.749Z,13.53
2022-08-14T05:31:24.103Z,13.60
2022-08-14T05:34:41.014Z,13.75
2022-08-14T05:37:47.417Z,13.84
2022-08-14T05:40:49.372Z,13.94
2022-08-14T05:43:51.339Z,14.08
2022-08-14T05:46:52.859Z,14.18
2022-08-14T05:49:59.672Z,14.22
2022-08-14T05:53:01.416Z,14.38
2022-08-14T05:56:03.369Z,14.59
2022-08-14T05:59:05.604Z,14.79
2022-08-14T06:02:10.010Z,15.03
2022-08-14T06:05:12.158Z,15.23
2022-08-14T06:08:31.391Z,15.41
2022-08-14T06:11:38.081Z,15.58
2022-08-14T06:14:39.588Z,15.74
2022-08-14T06:17:46.359Z,15.91
2022-08-14T06:20:57.320Z,16.06
2022-08-14T06:23:59.540Z,16.20
2022-08-14T06:27:04.267Z,16.31
2022-08-14T06:30:08.237Z,16.41
2022-08-14T06:33:12.953Z,16.52
2022-08-14T06:36:20.325Z,16.65
2022-08-14T06:39:36.648Z,16.97
2022-08-14T06:42:39.923Z,17.16
2022-08-14T06:45:43.573Z,17.27
2022-08-14T06:48:52.216Z,17.35
2022-08-14T06:51:56.752Z,17.59
2022-08-14T06:54:58.336Z,17.81
2022-08-14T06:58:00.752Z,17.90
2022-08-14T07:01:27.734Z,18.17
2022-08-14T07:04:48.170Z,18.47
2022-08-14T07:07:49.674Z,19.04
2022-08-14T07:10:54.280Z,19.94
2022-08-14T07:13:57.761Z,21.07
2022-08-14T07:16:59.237Z,21.68
2022-08-14T07:20:02.851Z,22.09
2022-08-14T07:23:08.553Z,22.73
2022-08-14T07:26:10.998Z,22.82
2022-08-14T07:29:14.911Z,23.13
2022-08-14T07:32:22.220Z,23.52
2022-08-14T07:35:42.803Z,23.97
2022-08-14T07:38:58.132Z,23.89
2022-08-14T07:41:59.665Z,23.89
2022-08-14T07:45:03.523Z,23.73
2022-08-14T07:48:06.247Z,24.12
2022-08-14T07:51:11.432Z,24.30
2022-08-14T07:54:16.374Z,24.46
2022-08-14T07:57:22.471Z,24.60
2022-08-14T08:00:31.263Z,24.93
2022-08-14T08:03:35.909Z,24.99
2022-08-14T08:06:38.244Z,25.15
2022-08-14T08:09:47.440Z,25.24
2022-08-14T08:12:55.539Z,25.28
2022-08-14T08:15:57.644Z,25.59
2022-08-14T08:19:05.464Z,25.76
2022-08-14T08:22:14.860Z,26.02
2022-08-14T08:25:18.022Z,26.19
2022-08-14T08:28:25.167Z,26.33
2022-08-14T08:31:32.670Z,26.59
2022-08-14T08:34:45.456Z,26.90
2022-08-14T08:37:48.308Z,26.95
2022-08-14T08:40:56.889Z,26.79
2022-08-14T08:44:05.536Z,26.88
2022-08-14T08:47:08.078Z,26.96
2022-08-14T08:53:38.802Z,27.11
2022-08-14T08:56:48.099Z,27.40
2022-08-14T08:59:55.169Z,27.69
2022-08-14T09:03:03.188Z,27.81
2022-08-14T09:06:53.988Z,27.97
2022-08-14T09:09:33.221Z,28.57
2022-08-14T09:12:51.665Z,29.32
2022-08-14T09:15:54.044Z,29.33
2022-08-14T09:18:56.690Z,29.28
2022-08-14T09:21:59.047Z,29.36
2022-08-14T09:25:00.555Z,29.26
2022-08-14T09:28:03.251Z,29.53
2022-08-14T09:31:11.940Z,29.93
2022-08-14T09:34:39.461Z,30.14
2022-08-14T09:38:15.424Z,30.34
2022-08-14T09:41:27.052Z,30.27
2022-08-14T09:44:57.425Z,30.79
2022-08-14T09:48:01.863Z,30.68
2022-08-14T09:54:19.693Z,30.45
2022-08-14T09:57:27.625Z,30.28
2022-08-14T10:00:52.770Z,30.37
2022-08-14T10:03:56.292Z,30.39
2022-08-14T10:07:01.279Z,30.59
2022-08-14T10:10:03.884Z,30.69
2022-08-14T10:13:25.514Z,30.81
2022-08-14T10:16:33.264Z,30.91
2022-08-14T10:19:36.511Z,31.17
2022-08-14T10:23:21.694Z,31.42
2022-08-14T10:26:05.337Z,31.44
2022-08-14T10:29:20.275Z,30.73
2022-08-14T10:32:29.207Z,31.22
2022-08-14T10:35:47.823Z,30.84
2022-08-14T10:38:56.549Z,31.73
2022-08-14T10:42:16.501Z,31.15
2022-08-14T10:45:21.893Z,32.13
2022-08-14T10:48:37.107Z,31.49
2022-08-14T10:51:43.601Z,30.78
2022-08-14T10:54:47.402Z,31.40
2022-08-14T10:57:50.567Z,31.66
2022-08-14T11:00:57.830Z,31.62
2022-08-14T11:03:59.453Z,31.43
2022-08-14T11:07:01.386Z,32.20
2022-08-14T11:10:09.317Z,32.75
2022-08-14T11:13:17.429Z,32.84
2022-08-14T11:16:19.621Z,33.17
2022-08-14T11:19:21.734Z,33.65
2022-08-14T11:22:56.153Z,33.72
2022-08-14T11:25:52.901Z,32.74
2022-08-14T11:28:56.784Z,32.35
2022-08-14T11:32:01.450Z,32.31
2022-08-14T11:35:03.832Z,32.45
2022-08-14T11:38:07.411Z,31.42
2022-08-14T11:41:09.655Z,30.71
2022-08-14T11:44:17.531Z,30.40
2022-08-14T11:47:22.728Z,30.70
2022-08-14T11:50:37.357Z,30.55
2022-08-14T11:53:42.278Z,30.88
2022-08-14T11:56:45.665Z,30.48
2022-08-14T11:59:47.819Z,30.79
2022-08-14T12:03:02.735Z,31.07
2022-08-14T12:06:29.439Z,30.73
2022-08-14T12:09:33.628Z,30.95
2022-08-14T12:12:36.644Z,31.06
2022-08-14T12:15:38.185Z,31.09
2022-08-14T12:18:48.492Z,31.61
2022-08-14T12:21:51.754Z,32.15
2022-08-14T12:24:55.203Z,31.65
2022-08-14T12:27:59.168Z,31.49
2022-08-14T12:31:01.329Z,31.62
2022-08-14T12:34:10.268Z,32.35
2022-08-14T12:37:11.993Z,31.91
2022-08-14T12:40:14.281Z,32.44
2022-08-14T12:43:21.756Z,32.64
2022-08-14T12:46:35.230Z,32.68
2022-08-14T12:49:37.388Z,31.15
2022-08-14T12:52:53.940Z,31.38
2022-08-14T12:56:22.417Z,31.36
2022-08-14T12:59:29.790Z,31.36
2022-08-14T13:02:37.448Z,31.28
2022-08-14T13:05:38.993Z,31.05
2022-08-14T13:08:52.672Z,31.61
2022-08-14T13:11:58.782Z,31.43
2022-08-14T13:15:17.854Z,30.74
2022-08-14T13:18:21.064Z,30.57
2022-08-14T13:21:26.326Z,30.44
2022-08-14T13:24:28.093Z,30.31
2022-08-14T13:27:29.604Z,30.50
2022-08-14T13:30:33.804Z,30.52
2022-08-14T13:33:35.868Z,30.14
2022-08-14T13:36:54.899Z,29.91
2022-08-14T13:39:58.998Z,30.02
2022-08-14T13:43:02.180Z,29.81
2022-08-14T13:46:03.859Z,29.78
2022-08-14T13:49:12.156Z,29.71
2022-08-14T13:52:52.766Z,29.63
2022-08-14T13:55:42.403Z,29.53
2022-08-14T13:58:46.869Z,29.71
2022-08-14T14:01:51.655Z,29.68
2022-08-14T14:04:53.577Z,29.49
2022-08-14T14:07:57.176Z,29.84
2022-08-14T14:10:58.841Z,29.69
2022-08-14T14:14:01.463Z,29.51
2022-08-14T14:17:03.381Z,29.53
2022-08-14T14:20:15.263Z,30.04
2022-08-14T14:23:34.896Z,29.94
2022-08-14T14:26:36.692Z,29.42
2022-08-14T14:29:43.253Z,29.94
2022-08-14T14:33:01.926Z,30.30
2022-08-14T14:36:06.293Z,30.22
2022-08-14T14:39:08.851Z,29.66
2022-08-14T14:42:13.558Z,29.86
2022-08-14T14:45:20.869Z,30.06
2022-08-14T14:48:23.396Z,29.89
2022-08-14T14:51:29.984Z,30.06
2022-08-14T14:54:37.416Z,29.88
2022-08-14T14:57:40.987Z,29.83
2022-08-14T15:00:46.187Z,29.61
2022-08-14T15:03:48.080Z,29.63
2022-08-14T15:06:54.071Z,29.74
2022-08-14T15:09:55.599Z,29.59
2022-08-14T15:13:03.780Z,29.69
2022-08-14T15:16:07.711Z,29.82
2022-08-14T15:19:12.440Z,30.07
2022-08-14T15:22:16.284Z,29.75
2022-08-14T15:25:18.628Z,29.54
2022-08-14T15:28:21.774Z,29.41
2022-08-14T15:31:24.640Z,29.40
2022-08-14T15:34:43.498Z,29.34
2022-08-14T15:37:55.717Z,29.48
2022-08-14T15:41:01.867Z,29.45
2022-08-14T15:44:03.626Z,28.79
2022-08-14T15:47:09.407Z,29.01
2022-08-14T15:50:12.809Z,29.10
2022-08-14T15:53:14.786Z,29.10
2022-08-14T15:56:32.844Z,29.13
2022-08-14T15:59:56.887Z,29.11
2022-08-14T16:03:00.378Z,29.29
2022-08-14T16:06:05.066Z,29.15
2022-08-14T16:09:11.101Z,29.33
2022-08-14T16:12:12.870Z,29.15
2022-08-14T16:15:16.751Z,29.01
2022-08-14T16:18:20.034Z,28.97
2022-08-14T16:21:21.715Z,29.10
2022-08-14T16:24:28.120Z,28.88
2022-08-14T16:27:38.778Z,28.74
2022-08-14T16:30:51.439Z,28.62
2022-08-14T16:34:00.076Z,28.19
2022-08-14T16:37:03.213Z,27.87
2022-08-14T16:40:05.032Z,27.90
2022-08-14T16:43:13.073Z,27.75
2022-08-14T16:46:18.375Z,27.64
2022-08-14T16:49:26.045Z,27.46
2022-08-14T16:52:54.694Z,27.23
2022-08-14T16:56:17.052Z,27.08
2022-08-14T16:59:30.648Z,26.87
2022-08-14T17:02:46.442Z,26.61
2022-08-14T17:05:49.262Z,26.54
2022-08-14T17:08:50.849Z,26.49
2022-08-14T17:11:58.223Z,26.33
2022-08-14T17:15:14.811Z,26.34
2022-08-14T17:18:41.297Z,26.23
2022-08-14T17:21:47.141Z,26.08
2022-08-14T17:24:58.202Z,26.00
2022-08-14T17:28:52.161Z,26.09
2022-08-14T17:31:58.304Z,25.96
2022-08-14T17:34:54.117Z,25.82
2022-08-14T17:37:57.069Z,25.70
2022-08-14T17:41:18.502Z,25.71
2022-08-14T17:44:33.907Z,25.61
2022-08-14T17:47:46.518Z,25.58
2022-08-14T17:50:58.480Z,25.54
2022-08-14T17:54:04.216Z,25.54
2022-08-14T17:57:14.920Z,25.50
2022-08-14T18:00:17.479Z,25.43
2022-08-14T18:03:50.420Z,25.35
2022-08-14T18:06:58.576Z,25.29
2022-08-14T18:10:51.792Z,25.21
2022-08-14T18:13:52.058Z,25.18
2022-08-14T18:16:51.036Z,25.08
2022-08-14T18:19:52.604Z,25.03
2022-08-14T18:22:54.108Z,24.91
2022-08-14T18:25:56.178Z,24.86
2022-08-14T18:28:59.197Z,24.79
2022-08-14T18:32:00.741Z,24.72
2022-08-14T18:35:03.820Z,24.64
2022-08-14T18:38:25.349Z,24.60
2022-08-14T18:41:37.154Z,24.54
2022-08-14T18:44:54.499Z,24.53
2022-08-14T18:48:18.753Z,24.51
2022-08-14T18:51:25.695Z,24.46
2022-08-14T18:54:48.636Z,24.46
2022-08-14T18:58:00.901Z,24.36
2022-08-14T19:01:04.621Z,24.23
2022-08-14T19:04:08.289Z,24.25
2022-08-14T19:07:16.766Z,24.15
2022-08-14T19:10:31.794Z,24.07
2022-08-14T19:13:48.772Z,23.97
2022-08-14T19:16:53.754Z,23.90
2022-08-14T19:20:07.160Z,23.89
2022-08-14T19:23:21.935Z,23.87
2022-08-14T19:26:35.252Z,23.74
2022-08-14T19:29:39.907Z,23.64
2022-08-14T19:32:41.629Z,23.40
2022-08-14T19:35:55.372Z,23.31
2022-08-14T19:39:01.914Z,22.92
2022-08-14T19:42:10.330Z,22.70
2022-08-14T19:45:14.336Z,22.40
2022-08-14T19:48:16.160Z,22.33
2022-08-14T19:51:17.689Z,22.29
2022-08-14T19:54:19.061Z,22.25
2022-08-14T19:57:22.616Z,22.21
2022-08-14T20:00:29.530Z,22.09
2022-08-14T20:04:00.548Z,22.12
2022-08-14T20:07:08.836Z,22.06
2022-08-14T20:11:03.174Z,21.97
2022-08-14T20:14:10.552Z,21.82
2022-08-14T20:17:15.148Z,21.69
2022-08-14T20:20:30.925Z,21.52
2022-08-14T20:23:38.094Z,21.47
2022-08-14T20:26:46.888Z,21.50
2022-08-14T20:30:34.689Z,21.36
2022-08-14T20:33:47.684Z,21.28
2022-08-14T20:36:49.651Z,21.18
2022-08-14T20:39:54.419Z,21.27
2022-08-14T20:43:15.163Z,21.31
2022-08-14T20:46:18.036Z,21.35
2022-08-14T20:49:27.755Z,21.36
2022-08-14T20:52:29.231Z,21.33
2022-08-14T20:55:36.450Z,21.35
2022-08-14T20:58:45.837Z,21.33
2022-08-14T21:02:00.431Z,21.20
2022-08-14T21:05:22.545Z,21.10
2022-08-14T21:08:37.096Z,21.19
2022-08-14T21:11:40.162Z,21.24
2022-08-14T21:14:51.839Z,21.28
2022-08-14T21:17:56.048Z,21.31
2022-08-14T21:20:58.194Z,21.27
2022-08-14T21:24:00.391Z,21.23
2022-08-14T21:27:13.111Z,21.15
2022-08-14T21:30:46.898Z,21.00
2022-08-14T21:33:47.012Z,20.90
2022-08-14T21:36:58.572Z,20.86
2022-08-14T21:40:00.568Z,20.92
2022-08-14T21:43:02.171Z,20.94
2022-08-14T21:46:03.665Z,20.85
2022-08-14T21:49:20.562Z,20.72
2022-08-14T21:52:49.559Z,20.69
2022-08-14T21:55:43.650Z,20.78
2022-08-14T21:58:52.612Z,20.78
2022-08-14T22:02:00.195Z,20.74
2022-08-14T22:05:05.391Z,20.75
2022-08-14T22:08:12.460Z,20.76
2022-08-14T22:11:15.548Z,20.77
2022-08-14T22:14:25.439Z,20.77
2022-08-14T22:17:32.386Z,20.69
2022-08-14T22:20:36.287Z,20.70
2022-08-14T22:23:37.914Z,20.69
2022-08-14T22:26:43.064Z,20.67
2022-08-14T22:29:46.533Z,20.64
2022-08-14T22:32:58.419Z,20.59
2022-08-14T22:36:02.008Z,20.47
2022-08-14T22:39:10.824Z,20.40
2022-08-14T22:42:19.528Z,20.33
2022-08-14T22:45:23.978Z,20.19
2022-08-14T22:48:25.465Z,20.20
2022-08-14T22:51:30.935Z,20.16
2022-08-14T22:54:52.520Z,20.21
2022-08-14T22:57:55.135Z,20.30
2022-08-14T23:00:56.632Z,20.37
2022-08-14T23:03:59.129Z,20.37
2022-08-14T23:07:04.804Z,20.34
2022-08-14T23:10:32.639Z,20.29
2022-08-14T23:13:30.592Z,20.23
2022-08-14T23:16:32.842Z,20.25
2022-08-14T23:19:34.972Z,20.29
2022-08-14T23:22:36.827Z,20.35
2022-08-14T23:25:59.573Z,20.36
2022-08-14T23:29:06.951Z,20.33
2022-08-14T23:32:15.554Z,20.25
2022-08-14T23:35:24.012Z,20.25
2022-08-14T23:38:30.805Z,20.27
2022-08-14T23:41:46.848Z,20.33
2022-08-14T23:44:55.601Z,20.34
2022-08-14T23:47:58.877Z,20.38
2022-08-14T23:51:02.387Z,20.44
2022-08-14T23:54:03.989Z,20.64
2022-08-14T23:57:05.510Z,20.75
